Terminal Aerodrome Forecast
Issued by NWS Cleveland, OH

Home | Current Version | Previous Version | Text Only | Print | Product List | Glossary Off
Versions: 1 2 3 4 5 6 7 8 9 10 11 12 13 14 15 16 17

905
FTUS41 KCLE 081136
TAFYNG
TAF
KYNG 081136Z 0812/0912 16008KT P6SM BKN050 OVC100
     FM081700 15008KT 4SM -RA BR SCT015 OVC025
      TEMPO 0819/0823 2SM -RA BR SCT008 OVC012
     FM082300 24005KT 3SM -SN BR OVC006=

USA.gov is the U.S. government's official web portal to all federal, state and local government web resources and services.